PWSweather.com
Personal Weather Stations
Station Observations
KMAMEDFI2
Medfield, MA 02052

Medfield, MA 02052

Lat: 42.1900822, Lon: -71.3296889

Elevation: 138

Station Type: Rainwise WS MK-III

http://www.medfieldweather.com

High Low Average
Temperature 70.7°F21.5°F 64.2°F17.9°F 68.3°F20.2°F
Dew Point 68.9°F20.5°F 51.2°F10.7°F 60.5°F15.8°F
Winds 7.5 mph SE12.1 mph SE 0.3 mph 0.5 mph 3.7 mph 6.0 mph
Wind Gusts 20.8 mph33.5 mph 1.3 mph2.1 mph 8.6 mph13.8 mph
Humidity 96% 51% 78%
Pressure 30.04 in1017.30 in 29.91 in1012.90 in -
Precipitation 0.00 in0.00 in - -
Hour Temp Dew Point Humidity Winds Wind Gusts Pressure Precip Precip Rate Daily Precip Total
12:00 AM 70.1°F21.2°C 68.9°F20.5°C 96% 2.1 mph WSW3.4 kmh WSW 2.6 mph4.2 kmh 29.91 in1012.9 mb - 0.00 in0.0 mm 0.00 in0.0 mm
12:10 AM 70.2°F21.2°C 68.7°F20.4°C 95% 0.9 mph E1.4 kmh E 5.2 mph8.4 kmh 29.91 in1012.9 mb - 0.00 in0.0 mm 0.00 in0.0 mm
12:20 AM 70.1°F21.2°C 68.6°F20.3°C 95% 3.3 mph ESE5.3 kmh ESE 7.8 mph12.6 kmh 29.91 in1012.9 mb - 0.00 in0.0 mm 0.00 in0.0 mm
12:30 AM 70.1°F21.2°C 68.6°F20.3°C 95% 3.5 mph NE5.6 kmh NE 10.4 mph16.7 kmh 29.91 in1012.9 mb - 0.00 in0.0 mm 0.00 in0.0 mm
12:40 AM 69.9°F21.1°C 68.4°F20.2°C 95% 2.5 mph NE4.0 kmh NE 3.9 mph6.3 kmh 29.91 in1012.9 mb - 0.00 in0.0 mm 0.00 in0.0 mm
12:50 AM 69.8°F21.0°C 68.3°F20.2°C 95% 2.2 mph S3.5 kmh S 5.2 mph8.4 kmh 29.91 in1012.9 mb - 0.00 in0.0 mm 0.00 in0.0 mm
01:00 AM 69.9°F21.1°C 68.4°F20.2°C 95% 3.6 mph SW5.8 kmh SW 3.9 mph6.3 kmh 29.91 in1012.9 mb - 0.00 in0.0 mm 0.00 in0.0 mm
01:10 AM 69.8°F21.0°C 68.3°F20.2°C 95% 2.7 mph WSW4.3 kmh WSW 5.2 mph8.4 kmh 29.91 in1012.9 mb - 0.00 in0.0 mm 0.00 in0.0 mm
01:20 AM 69.8°F21.0°C 68.3°F20.2°C 95% 3.7 mph ENE6.0 kmh ENE 5.2 mph8.4 kmh 29.91 in1012.9 mb - 0.00 in0.0 mm 0.00 in0.0 mm
01:30 AM 69.8°F21.0°C 68.3°F20.2°C 95% 2.8 mph S4.5 kmh S 9.1 mph14.6 kmh 29.91 in1012.9 mb - 0.00 in0.0 mm 0.00 in0.0 mm
01:40 AM 69.8°F21.0°C 68.3°F20.2°C 95% 2.2 mph S3.5 kmh S 3.9 mph6.3 kmh 29.91 in1012.9 mb - 0.00 in0.0 mm 0.00 in0.0 mm
01:50 AM 69.7°F20.9°C 67.9°F19.9°C 94% 3.7 mph SE6.0 kmh SE 7.8 mph12.6 kmh 29.91 in1012.9 mb - 0.00 in0.0 mm 0.00 in0.0 mm
02:00 AM 69.7°F20.9°C 67.9°F19.9°C 94% 5.0 mph NW8.0 kmh NW 9.1 mph14.6 kmh 29.91 in1012.9 mb - 0.00 in0.0 mm 0.00 in0.0 mm
02:10 AM 69.7°F20.9°C 67.9°F19.9°C 94% 2.3 mph N3.7 kmh N 9.1 mph14.6 kmh 29.91 in1012.9 mb - 0.00 in0.0 mm 0.00 in0.0 mm
02:20 AM 69.5°F20.8°C 67.7°F19.8°C 94% 3.0 mph N4.8 kmh N 7.8 mph12.6 kmh 29.91 in1012.9 mb - 0.00 in0.0 mm 0.00 in0.0 mm
02:30 AM 69.5°F20.8°C 67.4°F19.7°C 93% 3.5 mph SE5.6 kmh SE 9.1 mph14.6 kmh 29.91 in1012.9 mb - 0.00 in0.0 mm 0.00 in0.0 mm
02:40 AM 69.5°F20.8°C 67.4°F19.7°C 93% 4.4 mph NW7.1 kmh NW 7.8 mph12.6 kmh 29.91 in1012.9 mb - 0.00 in0.0 mm 0.00 in0.0 mm
02:50 AM 69.5°F20.8°C 67.4°F19.7°C 93% 4.4 mph S7.1 kmh S 6.5 mph10.5 kmh 29.91 in1012.9 mb - 0.00 in0.0 mm 0.00 in0.0 mm
03:00 AM 69.3°F20.7°C 67.2°F19.6°C 93% 4.0 mph WSW6.4 kmh WSW 11.7 mph18.8 kmh 29.91 in1012.9 mb - 0.00 in0.0 mm 0.00 in0.0 mm
03:10 AM 69.2°F20.7°C 67.1°F19.5°C 93% 3.4 mph S5.5 kmh S 7.8 mph12.6 kmh 29.91 in1012.9 mb - 0.00 in0.0 mm 0.00 in0.0 mm
03:20 AM 69.2°F20.7°C 67.1°F19.5°C 93% 4.5 mph NW7.2 kmh NW 9.1 mph14.6 kmh 29.91 in1012.9 mb - 0.00 in0.0 mm 0.00 in0.0 mm
03:30 AM 69.2°F20.7°C 67.1°F19.5°C 93% 4.0 mph NNW6.4 kmh NNW 15.6 mph25.1 kmh 29.91 in1012.9 mb - 0.00 in0.0 mm 0.00 in0.0 mm
03:40 AM 68.9°F20.5°C 66.8°F19.3°C 93% 3.4 mph E5.5 kmh E 5.2 mph8.4 kmh 29.91 in1012.9 mb - 0.00 in0.0 mm 0.00 in0.0 mm
03:50 AM 68.9°F20.5°C 67.1°F19.5°C 94% 4.4 mph W7.1 kmh W 9.1 mph14.6 kmh 29.91 in1012.9 mb - 0.00 in0.0 mm 0.00 in0.0 mm
04:00 AM 68.7°F20.4°C 66.6°F19.2°C 93% 3.0 mph W4.8 kmh W 6.5 mph10.5 kmh 29.91 in1012.9 mb - 0.00 in0.0 mm 0.00 in0.0 mm
04:10 AM 68.6°F20.3°C 66.5°F19.2°C 93% 3.4 mph SE5.5 kmh SE 7.8 mph12.6 kmh 29.91 in1012.9 mb - 0.00 in0.0 mm 0.00 in0.0 mm
04:20 AM 68.7°F20.4°C 66.6°F19.2°C 93% 2.6 mph N4.2 kmh N 9.1 mph14.6 kmh 29.92 in1013.2 mb - 0.00 in0.0 mm 0.00 in0.0 mm
04:30 AM 68.6°F20.3°C 66.5°F19.2°C 93% 4.4 mph W7.1 kmh W 10.4 mph16.7 kmh 29.92 in1013.2 mb - 0.00 in0.0 mm 0.00 in0.0 mm
04:40 AM 68.6°F20.3°C 66.5°F19.2°C 93% 2.6 mph SE4.2 kmh SE 3.9 mph6.3 kmh 29.92 in1013.2 mb - 0.00 in0.0 mm 0.00 in0.0 mm
04:50 AM 68.6°F20.3°C 66.2°F19.0°C 92% 2.9 mph SSE4.7 kmh SSE 5.2 mph8.4 kmh 29.93 in1013.5 mb - 0.00 in0.0 mm 0.00 in0.0 mm
05:00 AM 68.7°F20.4°C 66.0°F18.9°C 91% 4.2 mph ENE6.8 kmh ENE 9.1 mph14.6 kmh 29.93 in1013.5 mb - 0.00 in0.0 mm 0.00 in0.0 mm
05:10 AM 68.6°F20.3°C 65.9°F18.8°C 91% 2.5 mph NW4.0 kmh NW 6.5 mph10.5 kmh 29.93 in1013.5 mb - 0.00 in0.0 mm 0.00 in0.0 mm
05:20 AM 68.5°F20.3°C 65.7°F18.7°C 91% 4.7 mph NW7.6 kmh NW 11.7 mph18.8 kmh 29.93 in1013.5 mb - 0.00 in0.0 mm 0.00 in0.0 mm
05:30 AM 68.5°F20.3°C 65.8°F18.8°C 91% 3.5 mph SW5.6 kmh SW 3.9 mph6.3 kmh 29.93 in1013.5 mb - 0.00 in0.0 mm 0.00 in0.0 mm
05:40 AM 68.4°F20.2°C 66.0°F18.9°C 92% 3.1 mph ENE5.0 kmh ENE 5.2 mph8.4 kmh 29.94 in1013.9 mb - 0.00 in0.0 mm 0.00 in0.0 mm
05:50 AM 68.4°F20.2°C 66.0°F18.9°C 92% 3.2 mph S5.1 kmh S 5.2 mph8.4 kmh 29.93 in1013.5 mb - 0.00 in0.0 mm 0.00 in0.0 mm
06:00 AM 68.4°F20.2°C 66.0°F18.9°C 92% 2.8 mph S4.5 kmh S 9.1 mph14.6 kmh 29.94 in1013.9 mb - 0.00 in0.0 mm 0.00 in0.0 mm
06:10 AM 68.6°F20.3°C 65.9°F18.8°C 91% 4.8 mph ESE7.7 kmh ESE 6.5 mph10.5 kmh 29.95 in1014.2 mb - 0.00 in0.0 mm 0.00 in0.0 mm
06:20 AM 68.6°F20.3°C 66.2°F19.0°C 92% 3.9 mph ENE6.3 kmh ENE 18.2 mph29.3 kmh 29.95 in1014.2 mb - 0.00 in0.0 mm 0.00 in0.0 mm
06:30 AM 68.5°F20.3°C 66.1°F18.9°C 92% 4.4 mph ESE7.1 kmh ESE 6.5 mph10.5 kmh 29.95 in1014.2 mb - 0.00 in0.0 mm 0.00 in0.0 mm
06:40 AM 68.6°F20.3°C 66.2°F19.0°C 92% 3.8 mph SE6.1 kmh SE 6.5 mph10.5 kmh 29.96 in1014.6 mb - 0.00 in0.0 mm 0.00 in0.0 mm
06:50 AM 68.5°F20.3°C 66.1°F18.9°C 92% 4.6 mph SW7.4 kmh SW 7.8 mph12.6 kmh 29.97 in1014.9 mb - 0.00 in0.0 mm 0.00 in0.0 mm
07:00 AM 68.5°F20.3°C 66.1°F18.9°C 92% 4.4 mph ESE7.1 kmh ESE 5.2 mph8.4 kmh 29.97 in1014.9 mb - 0.00 in0.0 mm 0.00 in0.0 mm
07:10 AM 68.6°F20.3°C 66.2°F19.0°C 92% 4.8 mph NNW7.7 kmh NNW 9.1 mph14.6 kmh 29.97 in1014.9 mb - 0.00 in0.0 mm 0.00 in0.0 mm
07:20 AM 68.6°F20.3°C 66.2°F19.0°C 92% 5.5 mph ESE8.9 kmh ESE 11.7 mph18.8 kmh 29.98 in1015.2 mb - 0.00 in0.0 mm 0.00 in0.0 mm
07:30 AM 68.6°F20.3°C 65.9°F18.8°C 91% 5.0 mph NW8.0 kmh NW 7.8 mph12.6 kmh 29.98 in1015.2 mb - 0.00 in0.0 mm 0.00 in0.0 mm
07:40 AM 68.6°F20.3°C 65.9°F18.8°C 91% 4.0 mph W6.4 kmh W 10.4 mph16.7 kmh 29.99 in1015.6 mb - 0.00 in0.0 mm 0.00 in0.0 mm
07:50 AM 68.4°F20.2°C 65.7°F18.7°C 91% 2.9 mph WNW4.7 kmh WNW 7.8 mph12.6 kmh 29.98 in1015.2 mb - 0.00 in0.0 mm 0.00 in0.0 mm
08:00 AM 68.1°F20.1°C 65.7°F18.7°C 92% 2.3 mph SE3.7 kmh SE 3.9 mph6.3 kmh 29.99 in1015.6 mb - 0.00 in0.0 mm 0.00 in0.0 mm
08:10 AM 67.9°F19.9°C 65.5°F18.6°C 92% 3.6 mph SSW5.8 kmh SSW 7.8 mph12.6 kmh 29.99 in1015.6 mb - 0.00 in0.0 mm 0.00 in0.0 mm
08:20 AM 67.9°F19.9°C 65.5°F18.6°C 92% 3.2 mph SSW5.1 kmh SSW 5.2 mph8.4 kmh 29.99 in1015.6 mb - 0.00 in0.0 mm 0.00 in0.0 mm
08:30 AM 67.7°F19.8°C 65.3°F18.5°C 92% 4.1 mph S6.6 kmh S 11.7 mph18.8 kmh 30.00 in1015.9 mb - 0.00 in0.0 mm 0.00 in0.0 mm
08:40 AM 67.7°F19.8°C 65.3°F18.5°C 92% 2.8 mph W4.5 kmh W 5.2 mph8.4 kmh 30.00 in1015.9 mb - 0.00 in0.0 mm 0.00 in0.0 mm
08:50 AM 67.7°F19.8°C 65.3°F18.5°C 92% 4.6 mph W7.4 kmh W 11.7 mph18.8 kmh 30.00 in1015.9 mb - 0.00 in0.0 mm 0.00 in0.0 mm
09:00 AM 67.9°F19.9°C 65.2°F18.4°C 91% 2.9 mph ESE4.7 kmh ESE 7.8 mph12.6 kmh 30.01 in1016.3 mb - 0.00 in0.0 mm 0.00 in0.0 mm
09:10 AM 68.1°F20.1°C 65.1°F18.4°C 90% 2.5 mph SW4.0 kmh SW 7.8 mph12.6 kmh 30.01 in1016.3 mb - 0.00 in0.0 mm 0.00 in0.0 mm
09:20 AM 68.3°F20.2°C 64.6°F18.1°C 88% 5.3 mph NE8.5 kmh NE 11.7 mph18.8 kmh 30.01 in1016.3 mb - 0.00 in0.0 mm 0.00 in0.0 mm
09:30 AM 68.5°F20.3°C 64.8°F18.2°C 88% 2.4 mph SSW3.9 kmh SSW 7.8 mph12.6 kmh 30.01 in1016.3 mb - 0.00 in0.0 mm 0.00 in0.0 mm
09:40 AM 68.6°F20.3°C 64.6°F18.1°C 87% 3.5 mph WSW5.6 kmh WSW 10.4 mph16.7 kmh 30.01 in1016.3 mb - 0.00 in0.0 mm 0.00 in0.0 mm
09:50 AM 68.6°F20.3°C 64.3°F17.9°C 86% 4.7 mph S7.6 kmh S 7.8 mph12.6 kmh 30.01 in1016.3 mb - 0.00 in0.0 mm 0.00 in0.0 mm
10:00 AM 68.7°F20.4°C 63.7°F17.6°C 84% 5.4 mph NW8.7 kmh NW 16.9 mph27.2 kmh 30.02 in1016.6 mb - 0.00 in0.0 mm 0.00 in0.0 mm
10:10 AM 68.9°F20.5°C 63.8°F17.7°C 84% 3.6 mph N5.8 kmh N 6.5 mph10.5 kmh 30.02 in1016.6 mb - 0.00 in0.0 mm 0.00 in0.0 mm
10:20 AM 68.9°F20.5°C 63.5°F17.5°C 83% 3.9 mph SSE6.3 kmh SSE 5.2 mph8.4 kmh 30.02 in1016.6 mb - 0.00 in0.0 mm 0.00 in0.0 mm
10:30 AM 68.9°F20.5°C 62.8°F17.1°C 81% 6.1 mph S9.8 kmh S 11.7 mph18.8 kmh 30.03 in1016.9 mb - 0.00 in0.0 mm 0.00 in0.0 mm
10:40 AM 68.8°F20.4°C 63.1°F17.3°C 82% 3.6 mph S5.8 kmh S 9.1 mph14.6 kmh 30.03 in1016.9 mb - 0.00 in0.0 mm 0.00 in0.0 mm
10:50 AM 68.8°F20.4°C 62.7°F17.1°C 81% 4.6 mph E7.4 kmh E 13.0 mph20.9 kmh 30.03 in1016.9 mb - 0.00 in0.0 mm 0.00 in0.0 mm
11:00 AM 68.8°F20.4°C 62.4°F16.9°C 80% 5.4 mph SE8.7 kmh SE 11.7 mph18.8 kmh 30.04 in1017.3 mb - 0.00 in0.0 mm 0.00 in0.0 mm
11:10 AM 68.9°F20.5°C 62.1°F16.7°C 79% 5.6 mph NE9.0 kmh NE 20.8 mph33.5 kmh 30.03 in1016.9 mb - 0.00 in0.0 mm 0.00 in0.0 mm
11:20 AM 68.9°F20.5°C 62.5°F16.9°C 80% 3.0 mph S4.8 kmh S 6.5 mph10.5 kmh 30.04 in1017.3 mb - 0.00 in0.0 mm 0.00 in0.0 mm
11:30 AM 68.9°F20.5°C 61.4°F16.3°C 77% 3.8 mph E6.1 kmh E 9.1 mph14.6 kmh 30.03 in1016.9 mb - 0.00 in0.0 mm 0.00 in0.0 mm
11:40 AM 68.8°F20.4°C 60.6°F15.9°C 75% 4.6 mph NE7.4 kmh NE 11.7 mph18.8 kmh 30.04 in1017.3 mb - 0.00 in0.0 mm 0.00 in0.0 mm
11:50 AM 68.9°F20.5°C 59.9°F15.5°C 73% 5.2 mph W8.4 kmh W 13.0 mph20.9 kmh 30.04 in1017.3 mb - 0.00 in0.0 mm 0.00 in0.0 mm
12:00 PM 69.1°F20.6°C 59.3°F15.2°C 71% 6.8 mph ESE10.9 kmh ESE 13.0 mph20.9 kmh 30.04 in1017.3 mb - 0.00 in0.0 mm 0.00 in0.0 mm
12:10 PM 69.3°F20.7°C 59.1°F15.1°C 70% 4.6 mph SE7.4 kmh SE 16.9 mph27.2 kmh 30.04 in1017.3 mb - 0.00 in0.0 mm 0.00 in0.0 mm
12:20 PM 69.7°F20.9°C 58.6°F14.8°C 68% 5.3 mph E8.5 kmh E 9.1 mph14.6 kmh 30.04 in1017.3 mb - 0.00 in0.0 mm 0.00 in0.0 mm
12:30 PM 69.6°F20.9°C 57.7°F14.3°C 66% 4.9 mph SSE7.9 kmh SSE 10.4 mph16.7 kmh 30.04 in1017.3 mb - 0.00 in0.0 mm 0.00 in0.0 mm
12:40 PM 69.8°F21.0°C 57.9°F14.4°C 66% 4.2 mph E6.8 kmh E 14.3 mph23.0 kmh 30.04 in1017.3 mb - 0.00 in0.0 mm 0.00 in0.0 mm
12:50 PM 70.3°F21.3°C 57.6°F14.2°C 64% 5.3 mph SSE8.5 kmh SSE 11.7 mph18.8 kmh 30.04 in1017.3 mb - 0.00 in0.0 mm 0.00 in0.0 mm
01:00 PM 70.1°F21.2°C 56.0°F13.3°C 61% 6.3 mph ESE10.1 kmh ESE 10.4 mph16.7 kmh 30.04 in1017.3 mb - 0.00 in0.0 mm 0.00 in0.0 mm
01:10 PM 70.2°F21.2°C 56.1°F13.4°C 61% 5.9 mph N9.5 kmh N 14.3 mph23.0 kmh 30.04 in1017.3 mb - 0.00 in0.0 mm 0.00 in0.0 mm
01:20 PM 70.1°F21.2°C 55.6°F13.1°C 60% 6.5 mph ESE10.5 kmh ESE 10.4 mph16.7 kmh 30.04 in1017.3 mb - 0.00 in0.0 mm 0.00 in0.0 mm
01:30 PM 70.0°F21.1°C 54.6°F12.6°C 58% 5.9 mph ESE9.5 kmh ESE 13.0 mph20.9 kmh 30.03 in1016.9 mb - 0.00 in0.0 mm 0.00 in0.0 mm
01:40 PM 69.6°F20.9°C 53.7°F12.1°C 57% 7.5 mph SE12.1 kmh SE 15.6 mph25.1 kmh 30.03 in1016.9 mb - 0.00 in0.0 mm 0.00 in0.0 mm
01:50 PM 69.4°F20.8°C 53.9°F12.2°C 58% 4.8 mph E7.7 kmh E 14.3 mph23.0 kmh 30.03 in1016.9 mb - 0.00 in0.0 mm 0.00 in0.0 mm
02:00 PM 69.3°F20.7°C 52.5°F11.4°C 55% 5.7 mph SSE9.2 kmh SSE 11.7 mph18.8 kmh 30.03 in1016.9 mb - 0.00 in0.0 mm 0.00 in0.0 mm
02:10 PM 69.4°F20.8°C 53.0°F11.7°C 56% 4.0 mph NNW6.4 kmh NNW 20.8 mph33.5 kmh 30.03 in1016.9 mb - 0.00 in0.0 mm 0.00 in0.0 mm
02:20 PM 69.5°F20.8°C 53.6°F12.0°C 57% 4.5 mph E7.2 kmh E 13.0 mph20.9 kmh 30.03 in1016.9 mb - 0.00 in0.0 mm 0.00 in0.0 mm
02:30 PM 69.6°F20.9°C 51.7°F10.9°C 53% 5.9 mph ESE9.5 kmh ESE 18.2 mph29.3 kmh 30.03 in1016.9 mb - 0.00 in0.0 mm 0.00 in0.0 mm
02:40 PM 69.5°F20.8°C 52.1°F11.2°C 54% 4.4 mph ESE7.1 kmh ESE 9.1 mph14.6 kmh 30.03 in1016.9 mb - 0.00 in0.0 mm 0.00 in0.0 mm
02:50 PM 69.5°F20.8°C 52.1°F11.2°C 54% 4.5 mph NE7.2 kmh NE 11.7 mph18.8 kmh 30.03 in1016.9 mb - 0.00 in0.0 mm 0.00 in0.0 mm
03:00 PM 69.6°F20.9°C 53.2°F11.8°C 56% 3.7 mph SE6.0 kmh SE 7.8 mph12.6 kmh 30.03 in1016.9 mb - 0.00 in0.0 mm 0.00 in0.0 mm
03:10 PM 69.5°F20.8°C 53.6°F12.0°C 57% 4.3 mph E6.9 kmh E 9.1 mph14.6 kmh 30.03 in1016.9 mb - 0.00 in0.0 mm 0.00 in0.0 mm
03:20 PM 69.8°F21.0°C 53.4°F11.9°C 56% 4.2 mph E6.8 kmh E 14.3 mph23.0 kmh 30.03 in1016.9 mb - 0.00 in0.0 mm 0.00 in0.0 mm
03:30 PM 70.0°F21.1°C 54.1°F12.3°C 57% 2.7 mph SE4.3 kmh SE 11.7 mph18.8 kmh 30.03 in1016.9 mb - 0.00 in0.0 mm 0.00 in0.0 mm
03:40 PM 70.4°F21.3°C 54.4°F12.4°C 57% 7.3 mph ESE11.7 kmh ESE 11.7 mph18.8 kmh 30.03 in1016.9 mb - 0.00 in0.0 mm 0.00 in0.0 mm
03:50 PM 70.5°F21.4°C 54.5°F12.5°C 57% 3.4 mph ESE5.5 kmh ESE 10.4 mph16.7 kmh 30.02 in1016.6 mb - 0.00 in0.0 mm 0.00 in0.0 mm
04:00 PM 70.7°F21.5°C 54.2°F12.3°C 56% 5.1 mph S8.2 kmh S 9.1 mph14.6 kmh 30.02 in1016.6 mb - 0.00 in0.0 mm 0.00 in0.0 mm
04:10 PM 70.6°F21.4°C 54.1°F12.3°C 56% 4.4 mph ESE7.1 kmh ESE 13.0 mph20.9 kmh 30.02 in1016.6 mb - 0.00 in0.0 mm 0.00 in0.0 mm
04:20 PM 70.6°F21.4°C 53.6°F12.0°C 55% 5.7 mph ENE9.2 kmh ENE 9.1 mph14.6 kmh 30.03 in1016.9 mb - 0.00 in0.0 mm 0.00 in0.0 mm
04:30 PM 70.7°F21.5°C 53.8°F12.1°C 55% 5.4 mph ESE8.7 kmh ESE 10.4 mph16.7 kmh 30.02 in1016.6 mb - 0.00 in0.0 mm 0.00 in0.0 mm
04:40 PM 70.7°F21.5°C 53.2°F11.8°C 54% 4.9 mph ESE7.9 kmh ESE 13.0 mph20.9 kmh 30.02 in1016.6 mb - 0.00 in0.0 mm 0.00 in0.0 mm
04:50 PM 70.4°F21.3°C 51.4°F10.8°C 51% 6.0 mph SE9.7 kmh SE 13.0 mph20.9 kmh 30.02 in1016.6 mb - 0.00 in0.0 mm 0.00 in0.0 mm
05:00 PM 70.1°F21.2°C 51.2°F10.7°C 51% 3.5 mph E5.6 kmh E 7.8 mph12.6 kmh 30.02 in1016.6 mb - 0.00 in0.0 mm 0.00 in0.0 mm
05:10 PM 69.8°F21.0°C 51.9°F11.1°C 53% 3.4 mph SE5.5 kmh SE 5.2 mph8.4 kmh 30.02 in1016.6 mb - 0.00 in0.0 mm 0.00 in0.0 mm
05:20 PM 69.3°F20.7°C 52.9°F11.6°C 56% 2.4 mph SE3.9 kmh SE 5.2 mph8.4 kmh 30.02 in1016.6 mb - 0.00 in0.0 mm 0.00 in0.0 mm
05:30 PM 69.2°F20.7°C 53.7°F12.1°C 58% 2.9 mph SE4.7 kmh SE 7.8 mph12.6 kmh 30.02 in1016.6 mb - 0.00 in0.0 mm 0.00 in0.0 mm
05:40 PM 68.6°F20.3°C 55.0°F12.8°C 62% 3.1 mph SE5.0 kmh SE 5.2 mph8.4 kmh 30.02 in1016.6 mb - 0.00 in0.0 mm 0.00 in0.0 mm
05:50 PM 68.1°F20.1°C 55.5°F13.1°C 64% 2.9 mph NE4.7 kmh NE 5.2 mph8.4 kmh 30.02 in1016.6 mb - 0.00 in0.0 mm 0.00 in0.0 mm
06:00 PM 67.9°F19.9°C 55.7°F13.2°C 65% 1.7 mph NE2.7 kmh NE 2.6 mph4.2 kmh 30.02 in1016.6 mb - 0.00 in0.0 mm 0.00 in0.0 mm
06:10 PM 67.5°F19.7°C 56.2°F13.4°C 67% 2.5 mph NE4.0 kmh NE 2.6 mph4.2 kmh 30.02 in1016.6 mb - 0.00 in0.0 mm 0.00 in0.0 mm
06:20 PM 67.3°F19.6°C 55.9°F13.3°C 67% 2.3 mph W3.7 kmh W 2.6 mph4.2 kmh 30.02 in1016.6 mb - 0.00 in0.0 mm 0.00 in0.0 mm
06:30 PM 66.9°F19.4°C 56.0°F13.3°C 68% 2.6 mph NW4.2 kmh NW 10.4 mph16.7 kmh 30.01 in1016.3 mb - 0.00 in0.0 mm 0.00 in0.0 mm
06:40 PM 66.8°F19.3°C 55.9°F13.3°C 68% 2.8 mph N4.5 kmh N 11.7 mph18.8 kmh 30.02 in1016.6 mb - 0.00 in0.0 mm 0.00 in0.0 mm
06:50 PM 66.4°F19.1°C 56.0°F13.3°C 69% 2.2 mph ESE3.5 kmh ESE 7.8 mph12.6 kmh 30.02 in1016.6 mb - 0.00 in0.0 mm 0.00 in0.0 mm
07:00 PM 66.1°F18.9°C 55.6°F13.1°C 69% 1.9 mph N3.1 kmh N 9.1 mph14.6 kmh 30.02 in1016.6 mb - 0.00 in0.0 mm 0.00 in0.0 mm
07:10 PM 66.0°F18.9°C 55.9°F13.3°C 70% 3.0 mph SSE4.8 kmh SSE 3.9 mph6.3 kmh 30.02 in1016.6 mb - 0.00 in0.0 mm 0.00 in0.0 mm
07:20 PM 65.8°F18.8°C 55.8°F13.2°C 70% 2.1 mph N3.4 kmh N 11.7 mph18.8 kmh 30.03 in1016.9 mb - 0.00 in0.0 mm 0.00 in0.0 mm
07:30 PM 65.7°F18.7°C 56.1°F13.4°C 71% 2.4 mph ENE3.9 kmh ENE 2.6 mph4.2 kmh 30.03 in1016.9 mb - 0.00 in0.0 mm 0.00 in0.0 mm
07:40 PM 65.4°F18.6°C 56.1°F13.4°C 72% 0.5 mph W0.8 kmh W 2.6 mph4.2 kmh 30.03 in1016.9 mb - 0.00 in0.0 mm 0.00 in0.0 mm
07:50 PM 64.8°F18.2°C 56.7°F13.7°C 75% 0.3 mph SSW0.5 kmh SSW 1.3 mph2.1 kmh 30.03 in1016.9 mb - 0.00 in0.0 mm 0.00 in0.0 mm
08:00 PM 64.4°F18.0°C 57.0°F13.9°C 77% 0.7 mph S1.1 kmh S 2.6 mph4.2 kmh 30.03 in1016.9 mb - 0.00 in0.0 mm 0.00 in0.0 mm
08:10 PM 64.5°F18.1°C 57.4°F14.1°C 78% 0.5 mph SE0.8 kmh SE 2.6 mph4.2 kmh 30.03 in1016.9 mb - 0.00 in0.0 mm 0.00 in0.0 mm
08:20 PM 64.6°F18.1°C 56.9°F13.8°C 76% 1.7 mph WSW2.7 kmh WSW 3.9 mph6.3 kmh 30.03 in1016.9 mb - 0.00 in0.0 mm 0.00 in0.0 mm
08:30 PM 64.9°F18.3°C 56.8°F13.8°C 75% 1.8 mph WSW2.9 kmh WSW 2.6 mph4.2 kmh 30.03 in1016.9 mb - 0.00 in0.0 mm 0.00 in0.0 mm
08:40 PM 65.2°F18.4°C 56.7°F13.7°C 74% 2.2 mph WNW3.5 kmh WNW 3.9 mph6.3 kmh 30.02 in1016.6 mb - 0.00 in0.0 mm 0.00 in0.0 mm
08:50 PM 65.4°F18.6°C 56.1°F13.4°C 72% 3.0 mph SE4.8 kmh SE 5.2 mph8.4 kmh 30.03 in1016.9 mb - 0.00 in0.0 mm 0.00 in0.0 mm
09:00 PM 65.6°F18.7°C 55.5°F13.1°C 70% 3.3 mph WSW5.3 kmh WSW 7.8 mph12.6 kmh 30.03 in1016.9 mb - 0.00 in0.0 mm 0.00 in0.0 mm
09:10 PM 65.6°F18.7°C 55.6°F13.1°C 70% 3.2 mph ENE5.1 kmh ENE 11.7 mph18.8 kmh 30.03 in1016.9 mb - 0.00 in0.0 mm 0.00 in0.0 mm
09:20 PM 65.6°F18.7°C 55.2°F12.9°C 69% 3.4 mph ENE5.5 kmh ENE 7.8 mph12.6 kmh 30.03 in1016.9 mb - 0.00 in0.0 mm 0.00 in0.0 mm
09:30 PM 65.8°F18.8°C 55.3°F12.9°C 69% 2.3 mph SW3.7 kmh SW 2.6 mph4.2 kmh 30.04 in1017.3 mb - 0.00 in0.0 mm 0.00 in0.0 mm
09:40 PM 65.7°F18.7°C 55.3°F12.9°C 69% 3.5 mph SW5.6 kmh SW 9.1 mph14.6 kmh 30.04 in1017.3 mb - 0.00 in0.0 mm 0.00 in0.0 mm
09:50 PM 65.7°F18.7°C 54.8°F12.7°C 68% 2.5 mph NW4.0 kmh NW 7.8 mph12.6 kmh 30.03 in1016.9 mb - 0.00 in0.0 mm 0.00 in0.0 mm
10:00 PM 65.7°F18.7°C 54.8°F12.7°C 68% 2.4 mph NW3.9 kmh NW 3.9 mph6.3 kmh 30.03 in1016.9 mb - 0.00 in0.0 mm 0.00 in0.0 mm
10:10 PM 65.4°F18.6°C 55.8°F13.2°C 71% 1.9 mph SE3.1 kmh SE 7.8 mph12.6 kmh 30.04 in1017.3 mb - 0.00 in0.0 mm 0.00 in0.0 mm
10:20 PM 65.1°F18.4°C 56.2°F13.4°C 73% 3.5 mph ESE5.6 kmh ESE 6.5 mph10.5 kmh 30.04 in1017.3 mb - 0.00 in0.0 mm 0.00 in0.0 mm
10:30 PM 64.9°F18.3°C 56.1°F13.4°C 73% 4.3 mph NW6.9 kmh NW 14.3 mph23.0 kmh 30.03 in1016.9 mb - 0.00 in0.0 mm 0.00 in0.0 mm
10:40 PM 64.8°F18.2°C 56.3°F13.5°C 74% 4.5 mph SE7.2 kmh SE 9.1 mph14.6 kmh 30.03 in1016.9 mb - 0.00 in0.0 mm 0.00 in0.0 mm
10:50 PM 64.6°F18.1°C 56.1°F13.4°C 74% 3.7 mph ESE6.0 kmh ESE 7.8 mph12.6 kmh 30.03 in1016.9 mb - 0.00 in0.0 mm 0.00 in0.0 mm
11:00 PM 64.4°F18.0°C 55.9°F13.3°C 74% 2.9 mph E4.7 kmh E 9.1 mph14.6 kmh 30.02 in1016.6 mb - 0.00 in0.0 mm 0.00 in0.0 mm
11:10 PM 64.4°F18.0°C 55.9°F13.3°C 74% 4.4 mph WNW7.1 kmh WNW 6.5 mph10.5 kmh 30.03 in1016.9 mb - 0.00 in0.0 mm 0.00 in0.0 mm
11:20 PM 64.3°F17.9°C 55.8°F13.2°C 74% 3.2 mph ESE5.1 kmh ESE 5.2 mph8.4 kmh 30.03 in1016.9 mb - 0.00 in0.0 mm 0.00 in0.0 mm
11:30 PM 64.2°F17.9°C 55.4°F13.0°C 73% 3.6 mph NNW5.8 kmh NNW 9.1 mph14.6 kmh 30.03 in1016.9 mb - 0.00 in0.0 mm 0.00 in0.0 mm
11:40 PM 64.2°F17.9°C 55.0°F12.8°C 72% 3.8 mph SE6.1 kmh SE 6.5 mph10.5 kmh 30.02 in1016.6 mb - 0.00 in0.0 mm 0.00 in0.0 mm
11:50 PM 64.3°F17.9°C 55.1°F12.8°C 72% 3.3 mph ENE5.3 kmh ENE 11.7 mph18.8 kmh 30.02 in1016.6 mb - 0.00 in0.0 mm 0.00 in0.0 mm